createdAt,value
2022-10-24T00:01:16.264Z,11.41
2022-10-24T00:03:43.131Z,11.40
2022-10-24T00:06:11.463Z,11.44
2022-10-24T00:08:39.006Z,11.42
2022-10-24T00:11:27.150Z,11.45
2022-10-24T00:13:55.470Z,11.46
2022-10-24T00:16:22.577Z,11.48
2022-10-24T00:18:49.642Z,11.52
2022-10-24T00:21:16.765Z,11.54
2022-10-24T00:23:43.754Z,11.56
2022-10-24T00:26:11.817Z,11.51
2022-10-24T00:28:39.782Z,11.52
2022-10-24T00:31:11.547Z,11.50
2022-10-24T00:33:38.485Z,11.50
2022-10-24T00:36:05.698Z,11.56
2022-10-24T00:38:32.435Z,11.59
2022-10-24T00:40:59.380Z,11.59
2022-10-24T00:43:27.072Z,11.67
2022-10-24T00:46:02.143Z,11.69
2022-10-24T00:48:33.703Z,11.74
2022-10-24T00:51:28.442Z,11.77
2022-10-24T00:54:01.495Z,11.79
2022-10-24T00:56:32.487Z,11.80
2022-10-24T00:59:01.230Z,11.81
2022-10-24T01:01:28.319Z,11.80
2022-10-24T01:03:55.169Z,11.81
2022-10-24T01:06:44.933Z,11.80
2022-10-24T01:09:36.930Z,11.77
2022-10-24T01:12:22.501Z,11.73
2022-10-24T01:15:11.974Z,11.73
2022-10-24T01:17:59.987Z,11.75
2022-10-24T01:20:32.720Z,11.78
2022-10-24T01:23:05.814Z,11.77
2022-10-24T01:25:49.746Z,11.77
2022-10-24T01:28:31.152Z,11.77
2022-10-24T01:31:12.349Z,11.79
2022-10-24T01:33:46.819Z,11.78
2022-10-24T01:36:25.527Z,11.75
2022-10-24T01:38:59.834Z,11.77
2022-10-24T01:41:29.052Z,11.75
2022-10-24T01:43:55.859Z,11.75
2022-10-24T01:46:31.994Z,11.82
2022-10-24T01:49:08.072Z,11.82
2022-10-24T01:51:36.953Z,11.83
2022-10-24T01:54:04.386Z,11.85
2022-10-24T01:56:31.270Z,11.88
2022-10-24T01:59:30.513Z,11.86
2022-10-24T02:02:23.986Z,11.85
2022-10-24T02:05:06.638Z,11.83
2022-10-24T02:07:35.179Z,11.84
2022-10-24T02:10:12.762Z,11.85
2022-10-24T02:12:48.425Z,11.86
2022-10-24T02:15:26.396Z,11.83
2022-10-24T02:17:54.724Z,11.83
2022-10-24T02:20:46.222Z,11.82
2022-10-24T02:23:25.316Z,11.82
2022-10-24T02:25:54.728Z,11.79
2022-10-24T02:28:28.619Z,11.81
2022-10-24T02:31:01.059Z,11.86
2022-10-24T02:33:30.130Z,11.92
2022-10-24T02:35:58.060Z,11.97
2022-10-24T02:38:27.984Z,11.97
2022-10-24T02:40:56.942Z,12.02
2022-10-24T02:43:25.728Z,12.07
2022-10-24T02:45:54.537Z,12.08
2022-10-24T02:48:27.084Z,12.11
2022-10-24T02:50:54.053Z,12.16
2022-10-24T02:53:24.173Z,12.21
2022-10-24T02:58:40.353Z,12.31
2022-10-24T03:01:07.431Z,12.31
2022-10-24T03:03:34.287Z,12.38
2022-10-24T03:06:01.814Z,12.46
2022-10-24T03:08:28.554Z,12.46
2022-10-24T03:10:55.615Z,12.47
2022-10-24T03:13:22.492Z,12.44
2022-10-24T03:15:49.608Z,12.42
2022-10-24T03:18:16.444Z,12.41
2022-10-24T03:20:43.510Z,12.36
2022-10-24T03:23:10.626Z,12.36
2022-10-24T03:25:37.717Z,12.36
2022-10-24T03:28:05.319Z,12.36
2022-10-24T03:30:32.315Z,12.41
2022-10-24T03:32:59.099Z,12.43
2022-10-24T03:35:26.215Z,12.42
2022-10-24T03:37:52.979Z,12.45
2022-10-24T03:40:19.990Z,12.48
2022-10-24T03:42:47.129Z,12.49
2022-10-24T03:45:14.457Z,12.51
2022-10-24T03:47:41.381Z,12.48
2022-10-24T03:50:08.881Z,12.52
2022-10-24T03:52:35.801Z,12.53
2022-10-24T03:55:03.223Z,12.59
2022-10-24T03:57:30.020Z,12.61
2022-10-24T03:59:57.065Z,12.60
2022-10-24T04:02:23.852Z,12.57
2022-10-24T04:04:50.834Z,12.58
2022-10-24T04:07:17.755Z,12.58
2022-10-24T04:09:44.832Z,12.57
2022-10-24T04:12:11.598Z,12.55
2022-10-24T04:14:38.569Z,12.57
2022-10-24T04:17:05.419Z,12.56
2022-10-24T04:19:32.695Z,12.54
2022-10-24T04:21:59.575Z,12.52
2022-10-24T04:24:26.840Z,12.47
2022-10-24T04:26:53.613Z,12.46
2022-10-24T04:29:20.684Z,12.44
2022-10-24T04:31:47.481Z,12.45
2022-10-24T04:34:14.543Z,12.44
2022-10-24T04:36:41.331Z,12.44
2022-10-24T04:39:09.296Z,12.44
2022-10-24T04:41:36.181Z,12.45
2022-10-24T04:44:03.721Z,12.44
2022-10-24T04:46:31.005Z,12.41
2022-10-24T04:48:58.001Z,12.41
2022-10-24T04:51:24.941Z,12.41
2022-10-24T04:53:52.139Z,12.43
2022-10-24T04:56:19.841Z,12.51
2022-10-24T04:58:47.507Z,12.51
2022-10-24T05:01:14.673Z,12.56
2022-10-24T05:03:41.710Z,12.56
2022-10-24T05:06:08.605Z,12.58
2022-10-24T05:08:36.291Z,12.67
2022-10-24T05:11:03.630Z,12.69
2022-10-24T05:13:33.023Z,12.68
2022-10-24T05:16:02.698Z,12.71
2022-10-24T05:18:29.664Z,12.76
2022-10-24T05:20:57.931Z,12.80
2022-10-24T05:23:25.342Z,12.79
2022-10-24T05:25:52.179Z,12.78
2022-10-24T05:28:19.136Z,12.76
2022-10-24T05:30:46.380Z,12.77
2022-10-24T05:33:13.503Z,12.78
2022-10-24T05:35:41.757Z,12.84
2022-10-24T05:38:09.251Z,12.88
2022-10-24T05:40:36.005Z,12.91
2022-10-24T05:43:03.255Z,12.92
2022-10-24T05:45:30.051Z,13.00
2022-10-24T05:47:57.039Z,12.99
2022-10-24T05:50:23.859Z,12.95
2022-10-24T05:52:50.844Z,13.05
2022-10-24T05:55:18.423Z,13.05
2022-10-24T05:57:46.051Z,13.06
2022-10-24T06:00:15.141Z,13.09
2022-10-24T06:02:42.723Z,13.17
2022-10-24T06:05:10.727Z,13.13
2022-10-24T06:07:38.376Z,13.09
2022-10-24T06:10:06.481Z,13.13
2022-10-24T06:12:33.803Z,13.20
2022-10-24T06:15:00.918Z,13.14
2022-10-24T06:17:27.985Z,13.22
2022-10-24T06:19:54.746Z,13.20
2022-10-24T06:22:24.760Z,13.24
2022-10-24T06:24:51.534Z,13.29
2022-10-24T06:27:18.498Z,13.26
2022-10-24T06:29:45.696Z,13.30
2022-10-24T06:32:13.019Z,13.38
2022-10-24T06:34:39.919Z,13.41
2022-10-24T06:37:06.939Z,13.46
2022-10-24T06:39:33.740Z,13.48
2022-10-24T06:42:01.974Z,13.46
2022-10-24T06:44:28.815Z,13.48
2022-10-24T06:46:55.871Z,13.57
2022-10-24T06:49:22.772Z,13.56
2022-10-24T06:51:49.945Z,13.57
2022-10-24T06:54:16.950Z,13.58
2022-10-24T06:56:43.999Z,13.62
2022-10-24T06:59:14.166Z,13.63
2022-10-24T07:01:41.394Z,13.65
2022-10-24T07:04:08.837Z,13.68
2022-10-24T07:06:36.263Z,13.73
2022-10-24T07:09:05.393Z,13.77
2022-10-24T07:11:34.526Z,13.79
2022-10-24T07:14:02.656Z,13.78
2022-10-24T07:16:31.874Z,13.80
2022-10-24T07:18:58.663Z,13.78
2022-10-24T07:21:28.751Z,13.86
2022-10-24T07:23:56.516Z,13.87
2022-10-24T07:26:25.764Z,13.91
2022-10-24T07:28:56.287Z,13.93
2022-10-24T07:31:26.677Z,14.02
2022-10-24T07:33:53.997Z,14.10
2022-10-24T07:36:23.611Z,14.09
2022-10-24T07:38:53.097Z,14.17
2022-10-24T07:41:24.597Z,14.26
2022-10-24T07:43:52.828Z,14.39
2022-10-24T07:46:20.177Z,14.56
2022-10-24T07:48:49.906Z,14.76
2022-10-24T07:51:17.992Z,15.21
2022-10-24T07:53:45.467Z,15.77
2022-10-24T07:56:15.737Z,16.23
2022-10-24T07:58:44.213Z,16.67
2022-10-24T08:01:14.455Z,17.27
2022-10-24T08:03:41.746Z,17.74
2022-10-24T08:06:16.111Z,18.06
2022-10-24T08:08:43.371Z,18.07
2022-10-24T08:11:13.104Z,18.30
2022-10-24T08:13:40.356Z,18.58
2022-10-24T08:16:09.209Z,18.83
2022-10-24T08:18:39.548Z,18.45
2022-10-24T08:21:12.738Z,17.80
2022-10-24T08:23:41.988Z,17.34
2022-10-24T08:26:11.750Z,16.99
2022-10-24T08:28:38.679Z,16.90
2022-10-24T08:31:09.013Z,16.99
2022-10-24T08:33:35.915Z,17.15
2022-10-24T08:36:13.828Z,17.49
2022-10-24T08:38:40.606Z,17.42
2022-10-24T08:41:15.999Z,17.33
2022-10-24T08:43:43.130Z,17.17
2022-10-24T08:46:28.240Z,17.07
2022-10-24T08:49:02.925Z,16.94
2022-10-24T08:51:40.528Z,16.88
2022-10-24T08:54:13.995Z,16.96
2022-10-24T08:56:41.428Z,16.87
2022-10-24T08:59:12.661Z,16.87
2022-10-24T09:01:43.360Z,16.82
2022-10-24T09:04:14.071Z,16.76
2022-10-24T09:06:41.871Z,16.77
2022-10-24T09:09:30.013Z,16.82
2022-10-24T09:12:15.265Z,16.95
2022-10-24T09:14:44.590Z,17.15
2022-10-24T09:17:29.642Z,17.30
2022-10-24T09:20:21.207Z,17.35
2022-10-24T09:22:49.019Z,17.50
2022-10-24T09:25:21.485Z,17.59
2022-10-24T09:27:49.423Z,17.82
2022-10-24T09:30:19.467Z,17.90
2022-10-24T09:32:47.377Z,17.97
2022-10-24T09:35:22.492Z,17.95
2022-10-24T09:38:19.194Z,17.66
2022-10-24T09:40:54.907Z,17.51
2022-10-24T09:43:39.455Z,17.53
2022-10-24T09:46:10.358Z,17.54
2022-10-24T09:48:40.068Z,17.51
2022-10-24T09:51:08.297Z,17.87
2022-10-24T09:53:38.535Z,18.40
2022-10-24T09:56:14.901Z,18.88
2022-10-24T09:58:42.646Z,19.14
2022-10-24T10:01:15.342Z,19.58
2022-10-24T10:03:43.084Z,19.89
2022-10-24T10:06:18.696Z,20.44
2022-10-24T10:08:55.141Z,21.03
2022-10-24T10:11:32.899Z,21.49
2022-10-24T10:14:02.672Z,21.80
2022-10-24T10:16:39.728Z,21.96
2022-10-24T10:19:19.036Z,22.46
2022-10-24T10:22:12.026Z,22.66
2022-10-24T10:24:43.437Z,23.06
2022-10-24T10:38:53.630Z,23.24
2022-10-24T10:41:33.663Z,23.52
2022-10-24T10:44:06.409Z,23.17
2022-10-24T10:46:39.150Z,22.45
2022-10-24T10:49:14.248Z,21.61
2022-10-24T10:51:50.285Z,20.90
2022-10-24T10:54:35.366Z,20.53
2022-10-24T10:57:08.400Z,20.23
2022-10-24T10:59:41.269Z,20.06
2022-10-24T11:02:34.371Z,19.94
2022-10-24T11:05:40.315Z,19.96
2022-10-24T11:08:29.655Z,20.25
2022-10-24T11:11:04.227Z,20.26
2022-10-24T11:13:37.012Z,19.94
2022-10-24T11:16:10.896Z,19.56
2022-10-24T11:18:42.509Z,19.58
2022-10-24T11:21:11.457Z,20.04
2022-10-24T11:23:52.288Z,20.17
2022-10-24T11:26:45.373Z,20.06
2022-10-24T11:29:27.003Z,19.83
2022-10-24T11:32:00.865Z,19.50
2022-10-24T11:34:46.993Z,19.52
2022-10-24T11:37:24.448Z,20.07
2022-10-24T11:40:14.603Z,20.76
2022-10-24T11:42:41.440Z,20.53
2022-10-24T11:45:15.161Z,20.10
2022-10-24T11:47:52.414Z,19.76
2022-10-24T11:50:21.850Z,19.55
2022-10-24T11:53:05.754Z,19.23
2022-10-24T11:55:39.103Z,19.01
2022-10-24T11:58:14.761Z,18.93
2022-10-24T12:01:12.878Z,18.70
2022-10-24T12:04:17.430Z,18.50
2022-10-24T12:07:04.599Z,18.33
2022-10-24T12:09:52.196Z,18.17
2022-10-24T12:12:58.015Z,17.98
2022-10-24T12:16:03.299Z,17.86
2022-10-24T12:18:41.841Z,17.84
2022-10-24T12:21:12.738Z,17.80
2022-10-24T12:23:52.269Z,17.76
2022-10-24T12:26:26.066Z,17.60
2022-10-24T12:28:58.406Z,17.60
2022-10-24T12:31:35.882Z,17.61
2022-10-24T12:34:23.082Z,17.56
2022-10-24T12:37:18.770Z,17.54
2022-10-24T12:39:52.583Z,17.52
2022-10-24T12:42:24.486Z,17.49
2022-10-24T12:45:28.533Z,17.44
2022-10-24T12:50:23.065Z,17.38
2022-10-24T12:52:56.016Z,17.36
2022-10-24T12:55:39.663Z,17.31
2022-10-24T12:58:25.156Z,17.23
2022-10-24T13:01:01.717Z,17.18
2022-10-24T13:03:54.357Z,17.14
2022-10-24T13:06:24.324Z,17.11
2022-10-24T13:08:57.927Z,17.11
2022-10-24T13:11:52.194Z,17.09
2022-10-24T13:14:42.097Z,17.00
2022-10-24T13:17:22.393Z,16.96
2022-10-24T13:20:04.496Z,16.90
2022-10-24T13:22:35.977Z,16.83
2022-10-24T13:25:20.082Z,16.75
2022-10-24T13:28:30.342Z,16.67
2022-10-24T13:31:00.276Z,16.61
2022-10-24T13:33:33.229Z,16.59
2022-10-24T13:36:09.253Z,16.55
2022-10-24T13:39:03.423Z,16.53
2022-10-24T13:41:35.964Z,16.50
2022-10-24T13:44:11.701Z,16.47
2022-10-24T13:46:48.989Z,16.46
2022-10-24T13:49:39.901Z,16.43
2022-10-24T13:52:44.501Z,16.43
2022-10-24T13:55:46.570Z,16.47
2022-10-24T13:58:24.490Z,16.45
2022-10-24T14:00:58.911Z,16.45
2022-10-24T14:03:27.981Z,16.41
2022-10-24T14:06:08.398Z,16.34
2022-10-24T14:08:48.161Z,16.31
2022-10-24T14:11:26.362Z,16.27
2022-10-24T14:14:02.620Z,16.25
2022-10-24T14:16:34.934Z,16.21
2022-10-24T14:19:29.805Z,16.16
2022-10-24T14:21:59.095Z,16.11
2022-10-24T14:24:25.848Z,16.09
2022-10-24T14:26:54.229Z,16.04
2022-10-24T14:29:25.209Z,16.04
2022-10-24T14:31:59.425Z,15.98
2022-10-24T14:34:26.726Z,15.96
2022-10-24T14:36:56.004Z,15.95
2022-10-24T14:39:26.298Z,15.93
2022-10-24T14:41:54.282Z,15.94
2022-10-24T14:44:22.446Z,15.89
2022-10-24T14:47:03.048Z,15.86
2022-10-24T14:49:36.818Z,15.84
2022-10-24T14:52:12.029Z,15.83
2022-10-24T14:54:41.512Z,15.79
2022-10-24T14:57:18.453Z,15.73
2022-10-24T14:59:47.958Z,15.71
2022-10-24T15:02:21.062Z,15.59
2022-10-24T15:04:48.761Z,15.54
2022-10-24T15:07:36.142Z,15.43
2022-10-24T15:10:52.388Z,15.35
2022-10-24T15:13:21.792Z,15.30
2022-10-24T15:15:55.133Z,15.24
2022-10-24T15:18:25.234Z,15.22
2022-10-24T15:20:54.993Z,15.17
2022-10-24T15:23:27.434Z,15.15
2022-10-24T15:26:16.907Z,15.09
2022-10-24T15:28:45.943Z,15.07
2022-10-24T15:31:14.887Z,15.00
2022-10-24T15:33:42.264Z,14.93
2022-10-24T15:36:20.176Z,14.90
2022-10-24T15:38:48.635Z,14.84
2022-10-24T15:41:16.136Z,14.83
2022-10-24T15:43:43.195Z,14.79
2022-10-24T15:46:09.977Z,14.78
2022-10-24T15:48:38.979Z,14.78
2022-10-24T15:51:06.001Z,14.73
2022-10-24T15:53:33.322Z,14.70
2022-10-24T15:56:00.063Z,14.70
2022-10-24T15:58:28.787Z,14.68
2022-10-24T16:00:55.927Z,14.71
2022-10-24T16:03:23.559Z,14.83
2022-10-24T16:05:56.073Z,14.90
2022-10-24T16:08:24.206Z,14.98
2022-10-24T16:10:53.225Z,14.99
2022-10-24T16:13:22.108Z,15.00
2022-10-24T16:15:49.804Z,14.99
2022-10-24T16:18:16.915Z,14.99
2022-10-24T16:20:43.743Z,14.95
2022-10-24T16:23:14.573Z,15.00
2022-10-24T16:25:41.517Z,14.98
2022-10-24T16:28:08.546Z,14.99
2022-10-24T16:30:38.035Z,15.00
2022-10-24T16:33:05.650Z,15.01
2022-10-24T16:35:35.608Z,15.04
2022-10-24T16:38:04.798Z,15.08
2022-10-24T16:40:36.657Z,15.06
2022-10-24T16:43:03.868Z,15.05
2022-10-24T16:45:30.809Z,15.06
2022-10-24T16:47:57.798Z,15.06
2022-10-24T16:50:28.632Z,15.07
2022-10-24T16:53:00.455Z,15.09
2022-10-24T16:55:28.183Z,15.07
2022-10-24T16:57:55.349Z,15.05
2022-10-24T17:00:23.315Z,15.06
2022-10-24T17:02:52.287Z,15.10
2022-10-24T17:05:21.555Z,15.09
2022-10-24T17:07:48.993Z,15.06
2022-10-24T17:10:19.488Z,15.04
2022-10-24T17:12:49.416Z,15.01
2022-10-24T17:15:20.846Z,15.05
2022-10-24T17:17:49.347Z,15.01
2022-10-24T17:20:17.527Z,14.97
2022-10-24T17:22:46.597Z,14.94
2022-10-24T17:25:25.321Z,14.92
2022-10-24T17:27:53.966Z,14.89
2022-10-24T17:30:23.877Z,14.86
2022-10-24T17:32:51.036Z,14.84
2022-10-24T17:35:20.869Z,14.82
2022-10-24T17:38:02.160Z,14.82
2022-10-24T17:40:42.634Z,14.78
2022-10-24T17:43:23.337Z,14.80
2022-10-24T17:45:50.406Z,14.79
2022-10-24T17:48:17.748Z,14.79
2022-10-24T17:50:45.377Z,14.77
2022-10-24T17:53:13.639Z,14.81
2022-10-24T17:55:46.124Z,14.83
2022-10-24T17:58:15.552Z,14.82
2022-10-24T18:00:43.195Z,14.87
2022-10-24T18:03:10.319Z,14.84
2022-10-24T18:05:38.214Z,14.80
2022-10-24T18:08:07.572Z,14.79
2022-10-24T18:10:36.961Z,14.74
2022-10-24T18:13:04.817Z,14.75
2022-10-24T18:15:31.608Z,14.74
2022-10-24T18:17:58.600Z,14.75
2022-10-24T18:20:25.371Z,14.69
2022-10-24T18:22:52.485Z,14.71
2022-10-24T18:25:22.717Z,14.68
2022-10-24T18:27:51.103Z,14.66
2022-10-24T18:30:19.603Z,14.65
2022-10-24T18:32:47.391Z,14.59
2022-10-24T18:35:15.408Z,14.61
2022-10-24T18:37:42.617Z,14.54
2022-10-24T18:40:10.119Z,14.52
2022-10-24T18:42:53.466Z,14.46
2022-10-24T18:45:23.442Z,14.44
2022-10-24T18:47:51.871Z,14.35
2022-10-24T18:50:24.109Z,14.29
2022-10-24T18:53:00.088Z,14.22
2022-10-24T18:55:29.330Z,14.12
2022-10-24T18:57:57.061Z,14.10
2022-10-24T19:00:28.702Z,14.10
2022-10-24T19:03:18.365Z,14.12
2022-10-24T19:05:54.541Z,14.13
2022-10-24T19:08:24.253Z,14.22
2022-10-24T19:10:53.436Z,14.27
2022-10-24T19:13:20.690Z,14.31
2022-10-24T19:15:53.654Z,14.38
2022-10-24T19:18:21.012Z,14.42
2022-10-24T19:20:47.838Z,14.38
2022-10-24T19:23:16.192Z,14.37
2022-10-24T19:25:43.225Z,14.34
2022-10-24T19:28:17.290Z,14.31
2022-10-24T19:30:45.119Z,14.34
2022-10-24T19:33:13.894Z,14.35
2022-10-24T19:35:46.870Z,14.28
2022-10-24T19:38:15.552Z,14.28
2022-10-24T19:40:51.973Z,14.27
2022-10-24T19:43:20.638Z,14.31
2022-10-24T19:46:07.266Z,14.30
2022-10-24T19:48:37.774Z,14.27
2022-10-24T19:51:06.970Z,14.27
2022-10-24T19:53:34.600Z,14.20
2022-10-24T19:56:06.324Z,14.18
2022-10-24T19:58:33.994Z,14.18
2022-10-24T20:01:22.237Z,14.17
2022-10-24T20:03:50.093Z,14.16
2022-10-24T20:06:17.741Z,14.13
2022-10-24T20:08:49.610Z,14.08
2022-10-24T20:11:17.191Z,13.99
2022-10-24T20:13:44.323Z,13.90
2022-10-24T20:16:11.557Z,13.81
2022-10-24T20:21:14.741Z,13.79
2022-10-24T20:23:41.891Z,13.80
2022-10-24T20:26:12.243Z,13.87
2022-10-24T20:28:43.256Z,13.96
2022-10-24T20:31:25.554Z,14.00
2022-10-24T20:33:53.097Z,14.03
2022-10-24T20:36:21.380Z,14.04
2022-10-24T20:38:48.470Z,14.02
2022-10-24T20:41:15.414Z,14.04
2022-10-24T20:43:42.507Z,14.05
2022-10-24T20:46:09.324Z,14.07
2022-10-24T20:48:36.661Z,14.02
2022-10-24T20:51:12.309Z,14.02
2022-10-24T20:53:39.837Z,14.02
2022-10-24T20:56:08.445Z,14.01
2022-10-24T20:58:40.363Z,13.99
2022-10-24T21:01:09.653Z,14.01
2022-10-24T21:03:37.651Z,14.03
2022-10-24T21:06:05.348Z,14.02
2022-10-24T21:08:32.361Z,14.00
2022-10-24T21:10:59.135Z,14.01
2022-10-24T21:13:26.100Z,13.99
2022-10-24T21:15:56.833Z,13.98
2022-10-24T21:18:23.888Z,13.91
2022-10-24T21:20:50.980Z,13.87
2022-10-24T21:23:18.025Z,13.83
2022-10-24T21:25:44.911Z,13.78
2022-10-24T21:28:11.917Z,13.76
2022-10-24T21:30:38.748Z,13.72
2022-10-24T21:33:09.058Z,13.71
2022-10-24T21:35:38.407Z,13.71
2022-10-24T21:38:05.384Z,13.71
2022-10-24T21:40:32.144Z,13.71
2022-10-24T21:43:00.761Z,13.68
2022-10-24T21:45:27.688Z,13.66
2022-10-24T21:47:54.670Z,13.67
2022-10-24T21:50:21.409Z,13.63
2022-10-24T21:52:48.584Z,13.62
2022-10-24T21:55:15.664Z,13.59
2022-10-24T21:57:42.672Z,13.56
2022-10-24T22:00:10.276Z,13.57
2022-10-24T22:02:37.388Z,13.57
2022-10-24T22:05:04.558Z,13.54
2022-10-24T22:07:31.560Z,13.50
2022-10-24T22:09:58.331Z,13.46
2022-10-24T22:12:25.756Z,13.40
2022-10-24T22:14:52.533Z,13.36
2022-10-24T22:17:19.497Z,13.33
2022-10-24T22:19:46.238Z,13.33
2022-10-24T22:22:13.278Z,13.28
2022-10-24T22:24:40.293Z,13.28
2022-10-24T22:27:07.291Z,13.32
2022-10-24T22:29:34.027Z,13.35
2022-10-24T22:32:01.301Z,13.41
2022-10-24T22:34:28.528Z,13.50
2022-10-24T22:37:05.554Z,13.54
2022-10-24T22:39:32.642Z,13.57
2022-10-24T22:41:59.891Z,13.56
2022-10-24T22:44:26.990Z,13.59
2022-10-24T22:47:14.802Z,13.63
2022-10-24T22:50:02.847Z,13.65
2022-10-24T22:52:30.300Z,13.65
2022-10-24T22:54:57.330Z,13.65
2022-10-24T22:57:24.813Z,13.67
2022-10-24T22:59:51.964Z,13.67
2022-10-24T23:02:37.999Z,13.66
2022-10-24T23:05:09.418Z,13.66
2022-10-24T23:07:46.132Z,13.66
2022-10-24T23:10:18.673Z,13.65
2022-10-24T23:12:46.335Z,13.65
2022-10-24T23:15:19.010Z,13.67
2022-10-24T23:17:47.052Z,13.72
2022-10-24T23:20:27.618Z,13.71
2022-10-24T23:23:09.057Z,13.78
2022-10-24T23:25:48.744Z,13.80
2022-10-24T23:28:15.767Z,13.82
2022-10-24T23:30:42.795Z,13.86
2022-10-24T23:33:22.632Z,13.89
2022-10-24T23:35:54.683Z,13.87
2022-10-24T23:38:21.958Z,13.86
2022-10-24T23:40:49.041Z,13.89
2022-10-24T23:43:20.073Z,13.87
2022-10-24T23:46:05.098Z,13.87
2022-10-24T23:48:42.924Z,13.84
2022-10-24T23:51:14.076Z,13.85
2022-10-24T23:53:52.348Z,13.80
2022-10-24T23:56:25.122Z,13.83
2022-10-24T23:58:52.758Z,13.85
